Time;durP1;ratioP1;P1;durP2;ratioP2;P2;SDS_P1;SDS_P2;PMS_P1;PMS_P2;Temp;Humidity;BMP_temperature;BMP_pressure;BME280_temperature;BME280_humidity;BME280_pressure;Samples;Min_cycle;Max_cycle;Signal;HPM_P1;HPM_P2
2022/12/28 00:00:51;;;;;;;5.63;2.75;;;2.00;99.90;;;;;;5028980;28;20040;-84
2022/12/28 00:03:16;;;;;;;4.28;2.60;;;2.10;99.90;;;;;;5026178;28;20072;-83
2022/12/28 00:05:42;;;;;;;4.38;2.47;;;2.10;99.90;;;;;;5025572;28;20021;-84
2022/12/28 00:08:08;;;;;;;4.15;2.60;;;2.10;99.90;;;;;;5034891;28;20025;-83
2022/12/28 00:10:33;;;;;;;3.75;2.13;;;2.10;99.90;;;;;;5027759;28;20049;-82
2022/12/28 00:12:59;;;;;;;7.45;3.03;;;2.10;99.90;;;;;;5022546;28;20025;-84
2022/12/28 00:15:25;;;;;;;4.72;2.50;;;2.10;99.90;;;;;;5022065;28;20030;-84
2022/12/28 00:17:50;;;;;;;4.95;2.70;;;2.10;99.90;;;;;;5024007;28;20056;-84
2022/12/28 00:20:17;;;;;;;3.38;2.30;;;2.10;99.90;;;;;;5023778;28;20021;-83
2022/12/28 00:22:42;;;;;;;3.47;2.40;;;2.10;99.90;;;;;;5022440;28;20384;-83
2022/12/28 00:25:08;;;;;;;4.28;2.08;;;2.10;99.90;;;;;;5023223;28;20010;-82
2022/12/28 00:27:34;;;;;;;4.25;2.60;;;2.10;99.90;;;;;;5024000;28;20049;-82
2022/12/28 00:29:59;;;;;;;5.22;2.78;;;2.10;99.90;;;;;;5024536;28;20033;-82
2022/12/28 00:32:25;;;;;;;3.95;2.60;;;2.10;99.90;;;;;;5023570;28;20037;-83
2022/12/28 00:34:51;;;;;;;3.97;2.60;;;2.10;99.90;;;;;;5023140;28;20022;-84
2022/12/28 00:37:17;;;;;;;3.85;2.53;;;2.10;99.90;;;;;;5021473;28;20045;-84
2022/12/28 00:39:43;;;;;;;3.08;2.30;;;2.10;99.90;;;;;;5025531;28;20029;-81
2022/12/28 00:42:09;;;;;;;4.50;2.30;;;2.10;99.90;;;;;;5026421;28;20052;-83
2022/12/28 00:44:35;;;;;;;3.40;2.63;;;2.10;99.90;;;;;;5023895;28;20113;-82
2022/12/28 00:47:00;;;;;;;4.28;2.38;;;2.10;99.90;;;;;;5027304;28;20029;-81
2022/12/28 00:49:26;;;;;;;5.15;2.75;;;2.10;99.90;;;;;;5035352;28;20041;-81
2022/12/28 00:51:52;;;;;;;6.00;2.38;;;2.00;99.90;;;;;;5037951;28;20029;-82
2022/12/28 00:54:17;;;;;;;4.18;2.40;;;2.00;99.90;;;;;;5038425;28;20018;-81
2022/12/28 00:56:43;;;;;;;2.90;2.13;;;2.00;99.90;;;;;;5031775;28;20034;-84
2022/12/28 00:59:09;;;;;;;3.97;2.65;;;2.00;99.90;;;;;;5023274;28;20362;-83
2022/12/28 01:01:35;;;;;;;3.78;2.55;;;2.00;99.90;;;;;;5024708;28;20029;-83
2022/12/28 01:04:01;;;;;;;3.97;1.90;;;1.90;99.90;;;;;;5037123;28;20074;-82
2022/12/28 01:06:28;;;;;;;2.45;1.80;;;1.90;99.90;;;;;;5037962;28;20014;-80
2022/12/28 01:08:54;;;;;;;3.85;2.60;;;1.90;99.90;;;;;;5047553;28;20033;-83
2022/12/28 01:11:22;;;;;;;4.38;2.22;;;1.90;99.90;;;;;;5044159;28;20068;-82
2022/12/28 01:13:49;;;;;;;3.88;2.17;;;1.90;99.90;;;;;;5042265;28;20021;-83
2022/12/28 01:16:18;;;;;;;2.30;2.10;;;1.90;99.90;;;;;;5042768;28;20105;-84
2022/12/28 01:18:45;;;;;;;3.50;2.13;;;1.90;99.90;;;;;;5056684;28;20033;-80
2022/12/28 01:21:14;;;;;;;3.28;2.00;;;1.90;99.90;;;;;;5057345;28;20017;-80
2022/12/28 01:23:40;;;;;;;3.15;1.67;;;1.90;99.90;;;;;;5039715;28;20091;-81
2022/12/28 01:26:06;;;;;;;2.80;1.60;;;1.90;99.90;;;;;;5039489;28;20021;-80
2022/12/28 01:28:32;;;;;;;2.67;1.67;;;1.90;99.90;;;;;;5039630;28;20089;-81
2022/12/28 01:31:24;;;;;;;3.75;1.90;;;1.90;99.90;;;;;;5039845;28;20028;-81
2022/12/28 01:33:50;;;;;;;3.50;1.40;;;1.90;99.90;;;;;;5036546;28;20045;-83
2022/12/28 01:36:19;;;;;;;7.28;2.33;;;2.00;99.90;;;;;;5034325;28;20052;-84
2022/12/28 01:38:46;;;;;;;3.45;1.83;;;2.00;99.90;;;;;;5044151;28;20085;-80
2022/12/28 01:41:14;;;;;;;3.72;2.08;;;2.00;99.90;;;;;;5036753;28;20187;-78
2022/12/28 01:44:06;;;;;;;3.63;1.65;;;2.00;99.90;;;;;;5030006;28;20041;-81
2022/12/28 01:46:40;;;;;;;4.10;1.42;;;2.00;99.90;;;;;;5024368;28;20456;-81
2022/12/28 01:49:11;;;;;;;4.25;1.73;;;2.10;99.90;;;;;;5024809;28;20022;-81
2022/12/28 01:51:49;;;;;;;3.80;1.63;;;2.00;99.90;;;;;;5023250;28;20026;-83
2022/12/28 01:54:15;;;;;;;3.05;1.70;;;2.00;99.90;;;;;;5024806;28;20026;-83
2022/12/28 01:56:42;;;;;;;2.35;1.80;;;2.00;99.90;;;;;;5028457;28;20041;-81
2022/12/28 01:59:12;;;;;;;1.77;1.30;;;2.00;99.90;;;;;;5036201;28;20014;-81
2022/12/28 02:01:39;;;;;;;1.88;1.38;;;2.00;99.90;;;;;;5030817;28;20030;-84
2022/12/28 02:04:05;;;;;;;3.50;1.70;;;1.90;99.90;;;;;;5023025;28;20037;-83
2022/12/28 02:06:32;;;;;;;3.15;1.67;;;1.90;99.90;;;;;;5022217;28;20097;-83
2022/12/28 02:09:11;;;;;;;2.13;1.50;;;1.90;99.90;;;;;;5021034;28;20109;-80
2022/12/28 02:11:37;;;;;;;1.20;1.10;;;1.90;99.90;;;;;;5036171;28;20049;-83
2022/12/28 02:14:05;;;;;;;2.25;1.27;;;1.90;99.90;;;;;;5026540;28;20443;-81
2022/12/28 02:16:31;;;;;;;2.08;1.50;;;1.90;99.90;;;;;;5018257;28;20153;-81
2022/12/28 02:18:56;;;;;;;3.03;1.20;;;1.90;99.90;;;;;;5022086;28;20014;-83
2022/12/28 02:21:48;;;;;;;1.80;1.17;;;1.90;99.90;;;;;;5023186;28;20026;-82
2022/12/28 02:24:57;;;;;;;1.02;1.00;;;2.00;99.90;;;;;;5025352;28;20037;-81
2022/12/28 02:27:44;;;;;;;2.33;1.50;;;1.90;99.90;;;;;;5024206;28;20323;-83
2022/12/28 02:30:12;;;;;;;2.08;1.23;;;2.00;99.90;;;;;;5022977;28;20045;-83
2022/12/28 02:33:05;;;;;;;1.42;1.13;;;2.00;99.90;;;;;;5020551;28;20033;-82
2022/12/28 02:35:56;;;;;;;2.40;1.30;;;2.00;99.90;;;;;;5023302;28;20022;-83
2022/12/28 02:38:32;;;;;;;2.05;1.27;;;2.00;99.90;;;;;;5017969;28;20121;-83
2022/12/28 02:41:06;;;;;;;2.78;1.30;;;2.00;99.90;;;;;;5041399;28;20097;-83
2022/12/28 02:43:54;;;;;;;1.95;1.30;;;2.00;99.90;;;;;;5025001;28;20395;-82
2022/12/28 02:50:11;;;;;;;1.27;1.05;;;2.00;99.90;;;;;;5042866;28;20100;-83
2022/12/28 02:52:49;;;;;;;2.25;1.20;;;2.00;99.90;;;;;;5027975;28;20104;-81
2022/12/28 02:58:14;;;;;;;1.58;1.48;;;2.10;99.90;;;;;;5050371;28;20103;-82
2022/12/28 03:00:57;;;;;;;1.85;1.42;;;2.10;99.90;;;;;;5047970;28;20033;-82
2022/12/28 03:03:35;;;;;;;2.88;1.27;;;2.10;99.90;;;;;;5025043;28;20033;-83
2022/12/28 03:09:16;;;;;;;2.35;1.40;;;2.10;99.90;;;;;;5036600;28;20212;-81
2022/12/28 03:11:47;;;;;;;2.60;1.10;;;2.20;99.90;;;;;;5037682;28;20071;-80
2022/12/28 03:14:57;;;;;;;1.08;1.00;;;2.20;99.90;;;;;;5037082;28;20117;-81
2022/12/28 03:31:36;;;;;;;1.55;1.15;;;2.20;99.90;;;;;;5043767;28;20519;-84
2022/12/28 03:34:05;;;;;;;1.15;1.00;;;2.20;99.90;;;;;;5025626;28;20018;-84
2022/12/28 03:36:53;;;;;;;1.13;1.00;;;2.20;99.90;;;;;;5042594;28;20037;-84
2022/12/28 03:39:50;;;;;;;3.53;1.08;;;2.20;99.90;;;;;;5030277;28;20437;-84
2022/12/28 03:45:44;;;;;;;1.20;0.85;;;2.20;99.90;;;;;;5052160;28;20072;-81
2022/12/28 03:48:10;;;;;;;0.90;0.90;;;2.30;99.90;;;;;;5052888;28;20025;-81
2022/12/28 03:50:39;;;;;;;0.82;0.82;;;2.30;99.90;;;;;;5052890;28;20033;-81
2022/12/28 03:53:06;;;;;;;3.17;1.10;;;2.30;99.90;;;;;;5052769;28;20384;-81
2022/12/28 03:55:32;;;;;;;1.05;0.82;;;2.30;99.90;;;;;;5052488;28;20109;-82
2022/12/28 03:57:58;;;;;;;0.55;0.55;;;2.40;99.90;;;;;;5034477;28;20033;-82
2022/12/28 04:00:23;;;;;;;1.42;0.80;;;2.40;99.90;;;;;;5052931;28;20058;-82
2022/12/28 04:02:49;;;;;;;0.77;0.77;;;2.40;99.90;;;;;;5052603;28;20029;-81
2022/12/28 04:05:15;;;;;;;0.73;0.73;;;2.50;99.90;;;;;;5034620;28;20030;-84
2022/12/28 04:07:40;;;;;;;1.20;0.80;;;2.50;99.90;;;;;;5028782;28;20018;-79
2022/12/28 04:10:06;;;;;;;0.60;0.60;;;2.50;99.90;;;;;;5055347;28;20021;-80
2022/12/28 04:12:32;;;;;;;3.25;0.90;;;2.60;99.90;;;;;;5053041;28;20033;-83
2022/12/28 04:14:58;;;;;;;1.27;0.60;;;2.60;99.90;;;;;;5050789;28;20025;-82
2022/12/28 04:17:23;;;;;;;0.75;0.60;;;2.60;99.90;;;;;;5034488;28;20091;-82
2022/12/28 04:19:49;;;;;;;1.13;0.68;;;2.60;99.90;;;;;;5051650;28;20036;-83
2022/12/28 04:22:14;;;;;;;2.17;0.57;;;2.60;99.90;;;;;;5033081;28;20105;-83
2022/12/28 04:24:40;;;;;;;1.90;0.65;;;2.70;99.90;;;;;;5053757;28;20040;-82
2022/12/28 04:27:06;;;;;;;1.25;0.40;;;2.70;99.90;;;;;;5035608;28;20048;-82
2022/12/28 04:29:31;;;;;;;0.45;0.45;;;2.70;99.90;;;;;;5035561;28;20129;-82
2022/12/28 04:31:57;;;;;;;0.70;0.50;;;2.70;99.90;;;;;;5035649;28;20305;-84
2022/12/28 04:34:23;;;;;;;0.70;0.35;;;2.70;99.90;;;;;;5031963;28;20040;-84
2022/12/28 04:36:48;;;;;;;0.43;0.28;;;2.70;99.90;;;;;;5027713;28;20493;-83
2022/12/28 04:39:14;;;;;;;1.17;0.60;;;2.70;99.90;;;;;;5035796;28;20065;-83
2022/12/28 04:41:39;;;;;;;0.50;0.50;;;2.70;99.90;;;;;;5030304;28;20084;-83
2022/12/28 04:44:05;;;;;;;1.63;0.73;;;2.80;99.90;;;;;;5030871;28;20076;-82
2022/12/28 04:46:32;;;;;;;0.30;0.30;;;2.80;99.90;;;;;;5035284;28;20061;-81
2022/12/28 04:48:59;;;;;;;1.30;0.77;;;2.80;99.90;;;;;;5034227;28;20049;-83
2022/12/28 04:51:26;;;;;;;0.85;0.50;;;2.80;99.90;;;;;;5035785;28;20022;-79
2022/12/28 04:53:54;;;;;;;0.50;0.40;;;2.80;99.90;;;;;;5037832;28;20014;-81
2022/12/28 04:56:22;;;;;;;0.52;0.50;;;2.80;99.90;;;;;;5035154;28;20018;-81
2022/12/28 04:58:48;;;;;;;0.82;0.40;;;2.70;99.90;;;;;;5033956;28;20029;-83
2022/12/28 05:01:20;;;;;;;0.52;0.50;;;2.70;99.90;;;;;;5030703;28;20026;-83
2022/12/28 05:03:47;;;;;;;1.30;0.45;;;2.70;99.90;;;;;;5028790;28;20101;-81
2022/12/28 05:06:16;;;;;;;0.65;0.43;;;2.70;99.90;;;;;;5026290;28;20026;-84
2022/12/28 05:08:43;;;;;;;1.00;0.68;;;2.70;99.90;;;;;;5006386;28;20106;-82
2022/12/28 05:11:21;;;;;;;3.33;0.65;;;2.80;99.90;;;;;;5053412;28;20041;-81
2022/12/28 05:13:47;;;;;;;0.68;0.47;;;2.80;99.90;;;;;;5053271;28;20352;-82
2022/12/28 05:16:15;;;;;;;0.73;0.70;;;2.90;99.90;;;;;;5034925;28;20033;-82
2022/12/28 05:18:41;;;;;;;1.00;0.75;;;2.90;99.90;;;;;;5035601;28;20124;-81
2022/12/28 05:21:17;;;;;;;1.75;0.90;;;3.00;99.90;;;;;;5053985;28;20021;-80
2022/12/28 05:23:43;;;;;;;1.40;0.75;;;3.00;99.90;;;;;;5034957;28;20611;-80
2022/12/28 05:26:14;;;;;;;0.60;0.50;;;3.00;99.90;;;;;;5054264;28;20029;-81
2022/12/28 05:28:51;;;;;;;2.85;0.70;;;3.10;99.90;;;;;;5037211;28;20033;-80
2022/12/28 05:31:19;;;;;;;0.40;0.40;;;3.10;99.90;;;;;;5036528;28;20036;-81
2022/12/28 05:33:46;;;;;;;0.55;0.55;;;3.10;99.90;;;;;;5036944;28;20125;-81
2022/12/28 05:36:21;;;;;;;0.60;0.50;;;3.10;99.90;;;;;;5053503;28;20072;-81
2022/12/28 05:38:46;;;;;;;1.45;0.75;;;3.20;99.90;;;;;;5043284;28;20018;-80
2022/12/28 05:41:19;;;;;;;0.52;0.52;;;3.20;99.90;;;;;;5035205;28;20026;-80
2022/12/28 05:43:47;;;;;;;0.65;0.65;;;3.20;99.90;;;;;;5034514;28;20026;-82
2022/12/28 05:46:18;;;;;;;0.90;0.52;;;3.20;99.90;;;;;;5034175;28;20440;-81
2022/12/28 05:48:43;;;;;;;0.85;0.57;;;3.20;99.90;;;;;;5035575;28;20104;-81
2022/12/28 05:51:12;;;;;;;1.50;0.90;;;3.20;99.90;;;;;;5035697;28;20041;-80
2022/12/28 05:53:39;;;;;;;0.68;0.68;;;3.20;99.90;;;;;;5033998;28;20084;-80
2022/12/28 05:56:11;;;;;;;0.80;0.63;;;3.30;99.90;;;;;;5034401;28;20045;-81
2022/12/28 05:58:37;;;;;;;0.68;0.65;;;3.30;99.90;;;;;;5033682;28;20038;-82
2022/12/28 06:01:07;;;;;;;0.82;0.68;;;3.30;99.90;;;;;;5033200;28;20038;-82
2022/12/28 06:03:34;;;;;;;1.48;0.80;;;3.30;99.90;;;;;;5034709;28;20026;-83
2022/12/28 06:06:12;;;;;;;1.30;0.70;;;3.40;99.90;;;;;;5035816;28;20018;-83
2022/12/28 06:08:39;;;;;;;0.93;0.50;;;3.40;99.90;;;;;;5033450;28;20030;-82
2022/12/28 06:11:08;;;;;;;1.13;0.77;;;3.40;99.90;;;;;;5050719;28;20033;-84
2022/12/28 06:13:34;;;;;;;0.90;0.77;;;3.40;99.90;;;;;;5051569;28;20017;-83
2022/12/28 06:16:15;;;;;;;1.60;0.65;;;3.40;99.90;;;;;;5050721;28;20049;-83
2022/12/28 06:18:41;;;;;;;1.00;0.90;;;3.40;99.90;;;;;;5050782;28;20018;-83
2022/12/28 06:21:11;;;;;;;0.60;0.60;;;3.40;99.90;;;;;;5032406;28;20029;-82
2022/12/28 06:23:36;;;;;;;1.08;0.80;;;3.40;99.90;;;;;;5050396;28;20037;-80
2022/12/28 06:26:05;;;;;;;1.35;0.70;;;3.30;99.90;;;;;;5034952;28;20097;-81
2022/12/28 06:28:31;;;;;;;1.50;0.98;;;3.30;99.90;;;;;;5052626;28;20036;-81
2022/12/28 06:31:02;;;;;;;0.47;0.47;;;3.30;99.90;;;;;;5035759;28;20081;-80
2022/12/28 06:33:28;;;;;;;1.75;1.13;;;3.30;99.90;;;;;;5035159;28;20021;-81
2022/12/28 06:35:54;;;;;;;1.23;1.13;;;3.30;99.90;;;;;;5035256;28;20025;-81
2022/12/28 06:38:22;;;;;;;1.20;1.10;;;3.30;99.90;;;;;;5031944;28;20113;-81
2022/12/28 06:40:48;;;;;;;2.30;1.55;;;3.30;99.90;;;;;;5050307;28;20109;-82
2022/12/28 06:43:14;;;;;;;1.25;1.15;;;3.30;99.90;;;;;;5034340;28;20087;-83
2022/12/28 06:45:39;;;;;;;1.25;1.15;;;3.30;99.90;;;;;;5052214;28;20029;-80
2022/12/28 06:48:05;;;;;;;1.20;1.10;;;3.30;99.90;;;;;;5053044;28;20089;-81
2022/12/28 06:50:31;;;;;;;1.08;1.02;;;3.30;99.90;;;;;;5035414;28;20040;-80
2022/12/28 06:52:56;;;;;;;3.42;1.52;;;3.30;99.90;;;;;;5053280;28;20079;-81
2022/12/28 06:55:22;;;;;;;1.38;1.27;;;3.30;99.90;;;;;;5052960;28;20081;-79
2022/12/28 06:57:48;;;;;;;1.02;0.88;;;3.40;99.90;;;;;;5036102;28;20461;-81
2022/12/28 07:00:14;;;;;;;1.65;1.20;;;3.40;99.90;;;;;;5053608;28;20038;-80
2022/12/28 07:02:40;;;;;;;1.42;0.98;;;3.30;99.90;;;;;;5052884;28;20026;-82
2022/12/28 07:05:05;;;;;;;2.05;1.20;;;3.40;99.90;;;;;;5035538;28;20152;-81
2022/12/28 07:07:31;;;;;;;1.48;0.90;;;3.40;99.90;;;;;;5041780;28;20094;-81
2022/12/28 07:09:59;;;;;;;3.50;2.20;;;3.40;99.90;;;;;;5032463;28;20036;-80
2022/12/28 07:12:24;;;;;;;3.35;1.95;;;3.40;99.90;;;;;;5014484;28;20038;-81
2022/12/28 07:14:54;;;;;;;3.33;1.95;;;3.50;99.90;;;;;;5030380;28;20028;-81
2022/12/28 07:17:24;;;;;;;2.67;1.80;;;3.50;99.90;;;;;;5035255;28;20045;-81
2022/12/28 07:19:50;;;;;;;2.47;2.03;;;3.50;99.90;;;;;;5034992;28;20046;-81
2022/12/28 07:22:16;;;;;;;2.85;1.58;;;3.50;99.90;;;;;;5035523;28;20009;-80
2022/12/28 07:24:41;;;;;;;2.55;1.67;;;3.50;99.90;;;;;;5036255;28;20024;-79
2022/12/28 07:27:07;;;;;;;2.03;1.40;;;3.60;99.90;;;;;;5036082;28;20078;-81
2022/12/28 07:29:33;;;;;;;1.65;1.00;;;3.60;99.90;;;;;;5035502;28;20050;-80
2022/12/28 07:31:59;;;;;;;3.53;1.60;;;3.60;99.90;;;;;;5034225;28;20030;-79
2022/12/28 07:37:17;;;;;;;3.25;2.05;;;3.70;99.90;;;;;;5033635;28;20080;-83
2022/12/28 07:39:43;;;;;;;2.75;2.05;;;3.70;99.90;;;;;;5034290;28;20465;-83
2022/12/28 07:42:10;;;;;;;2.38;1.80;;;3.80;99.90;;;;;;5017771;28;20430;-82
2022/12/28 07:44:41;;;;;;;1.50;1.30;;;3.80;99.90;;;;;;5018639;28;20025;-82
2022/12/28 07:47:25;;;;;;;1.73;1.63;;;3.80;99.90;;;;;;5015561;28;20044;-83
2022/12/28 07:49:52;;;;;;;1.40;1.30;;;3.80;99.90;;;;;;5016890;28;20023;-83
2022/12/28 07:52:18;;;;;;;4.13;1.30;;;3.90;99.90;;;;;;5020972;28;20045;-84
2022/12/28 07:54:43;;;;;;;4.57;2.03;;;3.90;99.90;;;;;;5021269;28;20086;-83
2022/12/28 07:57:09;;;;;;;7.03;3.25;;;4.00;99.90;;;;;;5021840;28;20064;-83
2022/12/28 07:59:35;;;;;;;7.03;4.38;;;4.00;99.90;;;;;;5021677;28;20030;-83
2022/12/28 08:02:04;;;;;;;6.35;4.30;;;4.00;99.90;;;;;;5025767;28;20022;-81
2022/12/28 08:04:30;;;;;;;5.22;3.33;;;4.10;99.90;;;;;;5039194;28;20022;-84
2022/12/28 08:06:55;;;;;;;6.72;3.90;;;4.10;99.90;;;;;;5027104;28;20050;-82
2022/12/28 08:09:21;;;;;;;6.60;4.57;;;4.20;99.90;;;;;;5020220;28;20026;-82
2022/12/28 08:11:50;;;;;;;4.38;3.20;;;4.30;99.90;;;;;;5022964;28;20030;-82
2022/12/28 08:14:16;;;;;;;2.95;2.25;;;4.30;99.90;;;;;;5022854;28;20084;-84
2022/12/28 08:16:43;;;;;;;2.53;1.70;;;4.40;99.90;;;;;;5021422;28;20094;-83
2022/12/28 08:19:09;;;;;;;2.30;2.00;;;4.50;99.90;;;;;;5028913;28;20026;-82
2022/12/28 08:21:38;;;;;;;1.42;1.10;;;4.50;99.90;;;;;;5030007;28;20022;-81
2022/12/28 08:24:06;;;;;;;1.73;1.23;;;4.60;99.90;;;;;;5030420;28;20030;-81
2022/12/28 08:26:35;;;;;;;3.63;1.33;;;4.70;99.90;;;;;;5029612;28;20026;-84
2022/12/28 08:29:04;;;;;;;1.83;1.52;;;4.80;99.90;;;;;;5024291;28;20473;-83
2022/12/28 08:31:34;;;;;;;1.73;1.60;;;4.90;99.90;;;;;;5024845;28;20460;-82
2022/12/28 08:34:02;;;;;;;2.25;1.05;;;5.00;99.90;;;;;;5023929;28;20030;-83
2022/12/28 08:36:28;;;;;;;3.47;1.15;;;5.10;99.90;;;;;;5026064;28;20061;-82
2022/12/28 08:38:56;;;;;;;1.25;0.70;;;5.30;99.70;;;;;;5018718;28;20026;-82
2022/12/28 08:41:24;;;;;;;1.08;1.00;;;5.30;99.40;;;;;;5024698;28;20164;-81
2022/12/28 08:43:51;;;;;;;1.35;0.77;;;5.40;99.20;;;;;;5024140;28;20167;-82
2022/12/28 08:46:22;;;;;;;0.60;0.60;;;5.50;98.70;;;;;;5041687;28;20017;-83
2022/12/28 08:48:49;;;;;;;1.67;0.95;;;5.50;98.20;;;;;;5041997;28;20018;-82
2022/12/28 08:51:32;;;;;;;1.20;0.60;;;5.50;98.00;;;;;;5026132;28;20036;-84
2022/12/28 08:53:58;;;;;;;2.55;1.08;;;5.50;97.80;;;;;;5025858;28;20396;-83
2022/12/28 08:56:30;;;;;;;1.65;0.70;;;5.60;97.70;;;;;;5026970;28;20043;-83
2022/12/28 08:58:57;;;;;;;1.25;1.02;;;5.60;97.30;;;;;;5044985;28;20021;-83
2022/12/28 09:01:32;;;;;;;3.28;0.98;;;5.70;97.00;;;;;;5046536;28;20013;-85
2022/12/28 09:03:59;;;;;;;3.53;1.00;;;5.80;96.90;;;;;;5029862;28;20009;-84
2022/12/28 09:06:36;;;;;;;1.67;0.80;;;5.80;96.70;;;;;;5049318;28;20030;-81
2022/12/28 09:09:04;;;;;;;1.77;1.10;;;5.80;96.40;;;;;;5029116;28;20029;-84
2022/12/28 09:11:30;;;;;;;0.88;0.68;;;5.90;96.10;;;;;;5044837;28;20025;-83
2022/12/28 09:13:56;;;;;;;0.68;0.63;;;5.90;95.70;;;;;;5043993;28;20025;-81
2022/12/28 09:16:25;;;;;;;2.13;1.02;;;5.80;95.50;;;;;;5045879;28;20048;-83
2022/12/28 09:18:56;;;;;;;1.13;0.63;;;5.90;95.50;;;;;;5027303;28;20025;-83
2022/12/28 09:21:23;;;;;;;1.00;0.90;;;6.00;95.40;;;;;;5044427;28;20044;-82
2022/12/28 09:23:49;;;;;;;0.93;0.75;;;6.00;95.20;;;;;;5027145;28;20041;-84
2022/12/28 09:26:18;;;;;;;1.95;0.90;;;6.10;95.00;;;;;;5045497;28;20030;-82
2022/12/28 09:28:46;;;;;;;1.20;0.65;;;6.10;94.60;;;;;;5029152;28;20048;-83
2022/12/28 09:31:12;;;;;;;1.08;0.50;;;6.20;94.50;;;;;;5033692;28;20025;-81
2022/12/28 09:36:22;;;;;;;2.22;0.50;;;6.40;94.30;;;;;;5054168;28;20032;-82
2022/12/28 09:38:49;;;;;;;1.65;0.77;;;6.40;93.80;;;;;;5030514;28;20066;-82
2022/12/28 09:41:33;;;;;;;2.72;0.70;;;6.40;93.70;;;;;;5055961;28;20038;-81
2022/12/28 09:44:06;;;;;;;1.33;0.82;;;6.30;93.30;;;;;;5052513;28;20304;-81
2022/12/28 09:46:36;;;;;;;1.52;0.70;;;6.30;93.30;;;;;;5049689;28;20045;-82
2022/12/28 09:49:10;;;;;;;1.40;0.93;;;6.20;93.40;;;;;;5049619;28;20044;-84
2022/12/28 09:51:46;;;;;;;0.80;0.60;;;6.30;93.40;;;;;;5028596;28;20472;-83
2022/12/28 09:54:31;;;;;;;1.38;0.90;;;6.30;93.20;;;;;;5031018;28;20049;-84
2022/12/28 09:57:46;;;;;;;0.75;0.73;;;6.30;93.20;;;;;;5048485;28;20040;-83
2022/12/28 10:00:21;;;;;;;0.60;0.60;;;6.30;93.00;;;;;;5057519;28;20167;-81
2022/12/28 10:03:05;;;;;;;1.38;0.90;;;6.40;92.90;;;;;;5031020;28;20036;-83
2022/12/28 10:05:34;;;;;;;1.77;1.00;;;6.50;93.00;;;;;;5048937;28;20275;-82
2022/12/28 10:08:02;;;;;;;1.77;0.90;;;6.70;92.50;;;;;;5039663;28;20026;-81
2022/12/28 10:10:32;;;;;;;1.63;1.13;;;6.90;92.10;;;;;;5053467;28;20064;-83
2022/12/28 10:13:11;;;;;;;0.75;0.60;;;7.10;91.70;;;;;;5049554;28;20171;-83
2022/12/28 10:15:37;;;;;;;0.88;0.77;;;7.20;91.30;;;;;;5042885;28;20076;-81
2022/12/28 10:18:04;;;;;;;0.68;0.50;;;7.30;90.90;;;;;;5043299;28;20033;-83
2022/12/28 10:20:31;;;;;;;2.35;0.77;;;7.40;90.70;;;;;;5042398;28;20163;-85
2022/12/28 10:22:59;;;;;;;2.33;0.68;;;7.50;90.50;;;;;;5042732;28;20018;-83
2022/12/28 10:25:25;;;;;;;1.55;1.02;;;7.60;90.40;;;;;;5043763;28;20030;-83
2022/12/28 10:27:52;;;;;;;0.50;0.40;;;7.60;90.00;;;;;;5045376;28;20083;-84
2022/12/28 10:30:29;;;;;;;1.60;0.50;;;7.60;90.00;;;;;;5045488;28;20054;-81
2022/12/28 10:32:57;;;;;;;0.70;0.68;;;7.60;89.80;;;;;;5043350;28;20025;-81
2022/12/28 10:35:29;;;;;;;0.90;0.80;;;7.60;89.30;;;;;;5050001;28;20028;-81
2022/12/28 10:38:04;;;;;;;0.80;0.80;;;7.60;89.20;;;;;;5023865;28;20105;-81
2022/12/28 10:40:35;;;;;;;1.50;0.88;;;7.60;88.70;;;;;;5048519;28;20029;-81
2022/12/28 10:43:02;;;;;;;2.53;0.80;;;7.70;88.20;;;;;;5049608;28;20030;-81
2022/12/28 10:45:45;;;;;;;1.00;0.55;;;7.80;87.80;;;;;;5048037;28;20022;-84
2022/12/28 10:48:37;;;;;;;1.13;0.80;;;7.90;87.30;;;;;;5053910;28;20026;-82
2022/12/28 10:51:11;;;;;;;0.88;0.77;;;7.90;87.60;;;;;;5055806;28;20022;-80
2022/12/28 10:53:44;;;;;;;1.15;0.70;;;8.00;86.50;;;;;;5036114;28;20034;-82
2022/12/28 10:56:13;;;;;;;0.98;0.73;;;8.00;86.50;;;;;;5055915;28;20100;-81
2022/12/28 10:58:46;;;;;;;1.48;0.93;;;8.00;85.20;;;;;;5039005;28;20081;-82
2022/12/28 11:01:11;;;;;;;1.27;0.90;;;7.90;85.00;;;;;;5039031;28;20041;-80
2022/12/28 11:03:43;;;;;;;1.13;0.68;;;7.90;84.70;;;;;;5055934;28;20043;-81
2022/12/28 11:06:11;;;;;;;0.63;0.60;;;7.90;84.40;;;;;;5038028;28;20089;-82
2022/12/28 11:08:38;;;;;;;0.73;0.73;;;7.80;84.60;;;;;;5028151;28;20445;-83
2022/12/28 11:11:05;;;;;;;0.75;0.50;;;7.80;84.20;;;;;;5028803;28;20099;-84
2022/12/28 11:13:31;;;;;;;0.50;0.40;;;7.90;84.20;;;;;;5027119;28;20057;-84
2022/12/28 11:15:58;;;;;;;1.67;0.88;;;7.90;83.90;;;;;;5043603;28;20080;-84
2022/12/28 11:18:24;;;;;;;3.30;0.88;;;7.90;83.40;;;;;;5025725;28;20029;-82
2022/12/28 11:20:52;;;;;;;0.80;0.68;;;8.00;83.00;;;;;;5043346;28;20021;-83
2022/12/28 11:23:24;;;;;;;1.13;0.73;;;8.10;82.40;;;;;;5043788;28;20026;-82
2022/12/28 11:25:50;;;;;;;1.75;1.20;;;8.10;82.00;;;;;;5051208;28;20105;-80
2022/12/28 11:28:21;;;;;;;3.30;0.93;;;8.10;81.80;;;;;;5055652;28;20040;-82
2022/12/28 11:30:49;;;;;;;2.28;0.80;;;8.00;81.80;;;;;;5053485;28;20056;-84
2022/12/28 11:33:24;;;;;;;2.60;0.90;;;7.90;81.80;;;;;;5037695;28;20053;-82
2022/12/28 11:35:52;;;;;;;1.42;0.80;;;7.90;82.10;;;;;;5038347;28;20041;-79
2022/12/28 11:38:38;;;;;;;1.20;0.73;;;7.90;82.50;;;;;;5042087;28;20080;-79
2022/12/28 11:41:05;;;;;;;3.67;0.82;;;7.90;82.80;;;;;;5036013;28;20021;-80
2022/12/28 11:43:38;;;;;;;1.25;0.90;;;7.90;82.90;;;;;;5035169;28;20010;-81
2022/12/28 11:46:06;;;;;;;2.80;1.33;;;7.90;83.00;;;;;;5035754;28;20082;-80
2022/12/28 11:48:41;;;;;;;2.20;1.00;;;7.90;83.10;;;;;;5035340;28;20094;-80
2022/12/28 11:51:19;;;;;;;1.02;0.93;;;7.90;83.40;;;;;;5035679;28;20018;-81
2022/12/28 11:53:44;;;;;;;2.00;1.02;;;7.80;83.80;;;;;;5035369;28;20026;-78
2022/12/28 11:56:45;;;;;;;4.15;1.13;;;7.80;84.00;;;;;;5036015;28;20022;-80
2022/12/28 11:59:27;;;;;;;0.82;0.80;;;7.70;84.40;;;;;;5034890;28;20017;-80
2022/12/28 12:01:59;;;;;;;1.65;0.82;;;7.70;84.80;;;;;;5030558;28;20036;-82
2022/12/28 12:04:29;;;;;;;2.70;1.00;;;7.70;84.80;;;;;;5007999;28;20038;-81
2022/12/28 12:07:00;;;;;;;5.40;1.45;;;7.80;84.90;;;;;;5027561;28;20076;-84
2022/12/28 12:09:29;;;;;;;1.58;0.82;;;7.80;85.00;;;;;;5016056;28;20064;-81
2022/12/28 12:12:19;;;;;;;1.25;0.60;;;7.90;85.00;;;;;;5023298;28;20116;-83
2022/12/28 12:14:50;;;;;;;0.75;0.73;;;7.90;84.20;;;;;;5024224;28;20033;-82
2022/12/28 12:17:41;;;;;;;0.85;0.70;;;8.00;83.80;;;;;;5051378;28;20051;-81
2022/12/28 12:20:17;;;;;;;2.10;1.00;;;8.10;83.50;;;;;;5031083;28;20033;-82
2022/12/28 12:23:07;;;;;;;1.33;0.88;;;8.10;83.20;;;;;;5026822;28;20026;-82
2022/12/28 12:25:39;;;;;;;2.30;0.70;;;8.20;82.60;;;;;;5040663;28;20081;-84
2022/12/28 12:28:13;;;;;;;0.80;0.60;;;8.30;82.40;;;;;;5027476;28;20125;-82
2022/12/28 12:30:43;;;;;;;0.93;0.73;;;8.30;81.80;;;;;;5044831;28;20037;-83
2022/12/28 12:33:23;;;;;;;0.50;0.50;;;8.40;81.40;;;;;;5045875;28;20107;-83
2022/12/28 12:36:01;;;;;;;1.73;0.57;;;8.40;81.20;;;;;;5027444;28;20033;-83
2022/12/28 12:39:07;;;;;;;1.30;0.60;;;8.50;79.90;;;;;;5024458;28;20078;-80
2022/12/28 12:42:17;;;;;;;0.90;0.70;;;8.50;80.30;;;;;;5015830;28;20030;-82
2022/12/28 12:45:00;;;;;;;3.50;0.82;;;8.60;80.40;;;;;;5033003;28;20021;-79
2022/12/28 12:47:40;;;;;;;1.00;0.52;;;8.70;79.50;;;;;;5037470;28;20034;-81
2022/12/28 12:50:19;;;;;;;1.10;0.60;;;8.70;79.60;;;;;;5036298;28;20030;-81
2022/12/28 12:53:38;;;;;;;0.82;0.55;;;8.80;79.20;;;;;;5036489;28;20063;-81
2022/12/28 12:56:12;;;;;;;0.50;0.50;;;8.90;78.80;;;;;;4977450;28;20532;-82
2022/12/28 12:58:52;;;;;;;3.10;0.98;;;9.10;78.90;;;;;;5024628;28;20052;-82
2022/12/28 13:01:43;;;;;;;1.58;0.68;;;9.20;77.30;;;;;;5007843;28;20017;-82
2022/12/28 13:04:22;;;;;;;1.20;0.70;;;9.30;76.70;;;;;;5023491;28;20105;-82
2022/12/28 13:07:01;;;;;;;2.33;0.75;;;9.20;75.80;;;;;;5026899;28;20049;-82
2022/12/28 13:09:29;;;;;;;0.55;0.52;;;9.30;75.90;;;;;;5010679;28;20040;-82
2022/12/28 13:11:56;;;;;;;0.47;0.40;;;9.40;75.30;;;;;;5042723;28;20105;-81
2022/12/28 13:14:23;;;;;;;1.42;0.70;;;9.40;75.30;;;;;;5041675;28;20030;-84
2022/12/28 13:16:59;;;;;;;0.90;0.40;;;9.60;75.80;;;;;;5039546;28;20041;-83
2022/12/28 13:19:27;;;;;;;0.60;0.47;;;9.70;73.90;;;;;;5022932;28;20029;-80
2022/12/28 13:21:55;;;;;;;0.90;0.50;;;9.80;73.30;;;;;;5023586;28;20052;-82
2022/12/28 13:24:30;;;;;;;1.45;0.50;;;9.90;72.80;;;;;;5024927;28;20026;-83
2022/12/28 13:26:58;;;;;;;2.08;0.80;;;10.00;72.30;;;;;;5024961;28;20432;-82
2022/12/28 13:29:34;;;;;;;0.80;0.40;;;9.90;72.10;;;;;;5009571;28;20030;-82
2022/12/28 13:32:00;;;;;;;1.20;0.45;;;9.80;72.20;;;;;;5045089;28;20040;-82
2022/12/28 13:34:34;;;;;;;0.80;0.40;;;9.80;72.00;;;;;;5032311;28;20057;-82
2022/12/28 13:37:06;;;;;;;1.42;0.47;;;9.80;72.20;;;;;;5036777;28;20022;-80
2022/12/28 13:39:33;;;;;;;0.83;0.50;;;9.80;71.50;;;;;;5045432;28;20049;-81
2022/12/28 13:42:10;;;;;;;1.02;0.55;;;9.70;71.80;;;;;;5037399;28;20025;-81
2022/12/28 13:44:39;;;;;;;0.90;0.60;;;9.70;72.00;;;;;;5036807;28;20030;-81
2022/12/28 13:47:17;;;;;;;1.38;0.60;;;9.70;72.10;;;;;;5037498;28;20022;-80
2022/12/28 13:49:58;;;;;;;0.50;0.45;;;9.70;71.80;;;;;;5037428;28;20084;-80